Time;durP1;ratioP1;P1;durP2;ratioP2;P2;SDS_P1;SDS_P2;PMS_P1;PMS_P2;Temp;Humidity;BMP_temperature;BMP_pressure;BME280_temperature;BME280_humidity;BME280_pressure;Samples;Min_cycle;Max_cycle;Signal;HPM_P1;HPM_P2
2022/03/08 00:01:20;;;;;;;;;49.00;37.00;;;;;2.51;49.21;100893.06;5099766;27;45346;-73
2022/03/08 00:03:46;;;;;;;;;19.00;12.00;;;;;2.50;48.68;100882.69;5099204;27;45209;-71
2022/03/08 00:06:12;;;;;;;;;48.75;40.25;;;;;2.48;49.71;100880.94;5098597;27;46140;-72
2022/03/08 00:08:37;;;;;;;;;44.75;37.00;;;;;2.44;49.36;100876.63;5115458;27;45262;-77
2022/03/08 00:11:03;;;;;;;;;49.00;36.75;;;;;2.48;49.42;100885.25;5113813;27;45308;-68
2022/03/08 00:13:29;;;;;;;;;48.00;39.50;;;;;2.47;49.12;100874.03;5097596;27;45449;-72
2022/03/08 00:15:55;;;;;;;;;51.25;39.25;;;;;2.46;50.17;100872.31;5097436;27;45209;-67
2022/03/08 00:18:20;;;;;;;;;52.75;38.75;;;;;2.45;50.01;100878.38;5097417;27;45290;-67
2022/03/08 00:20:45;;;;;;;;;49.75;40.00;;;;;2.44;49.88;100873.16;5098210;27;45480;-71
2022/03/08 00:23:11;;;;;;;;;52.50;39.00;;;;;2.42;49.50;100874.88;5097039;27;45423;-72
2022/03/08 00:25:37;;;;;;;;;49.25;39.50;;;;;2.38;49.64;100874.06;5096670;27;45638;-67
2022/03/08 00:28:02;;;;;;;;;48.00;37.25;;;;;2.39;49.35;100878.38;5097350;27;45341;-67
2022/03/08 00:30:29;;;;;;;;;50.75;40.00;;;;;2.34;49.65;100872.31;5097095;27;45427;-65
2022/03/08 00:32:54;;;;;;;;;51.25;39.50;;;;;2.31;49.93;100869.72;5096540;27;45317;-66
2022/03/08 00:35:21;;;;;;;;;52.25;39.00;;;;;2.31;50.51;100873.19;5097001;27;45439;-62
2022/03/08 00:37:49;;;;;;;;;56.00;39.75;;;;;2.28;50.42;100877.53;5112446;27;45563;-69
2022/03/08 00:40:16;;;;;;;;;48.50;37.00;;;;;2.26;50.25;100876.66;5099003;27;45175;-62
2022/03/08 00:42:42;;;;;;;;;39.50;37.00;;;;;2.24;49.89;100881.84;5097228;27;45393;-72
2022/03/08 00:45:08;;;;;;;;;53.50;41.00;;;;;2.22;50.40;100877.53;5096765;27;46420;-70
2022/03/08 00:47:41;;;;;;;;;47.00;38.00;;;;;2.18;50.43;100874.94;5097277;27;45404;-76
2022/03/08 00:50:15;;;;;;;;;47.50;39.00;;;;;2.18;50.15;100882.72;5098812;27;45341;-65
2022/03/08 00:52:41;;;;;;;;;44.50;36.00;;;;;2.15;49.83;100881.84;5098504;27;45315;-74
2022/03/08 00:55:08;;;;;;;;;45.00;36.50;;;;;2.08;50.32;100870.59;5097422;27;46313;-72
2022/03/08 00:57:33;;;;;;;;;43.75;35.50;;;;;2.12;50.78;100876.66;5097873;27;45271;-74
2022/03/08 00:59:59;;;;;;;;;46.00;37.00;;;;;2.10;50.67;100875.78;5097992;27;45325;-63
2022/03/08 01:02:24;;;;;;;;;49.75;40.25;;;;;2.04;50.99;100872.34;5096589;27;45394;-72
2022/03/08 01:04:50;;;;;;;;;47.25;38.50;;;;;2.04;51.13;100863.66;5096994;27;45352;-68
2022/03/08 01:07:17;;;;;;;;;52.00;41.50;;;;;2.03;50.52;100862.81;5112685;27;45280;-67
2022/03/08 01:09:42;;;;;;;;;45.50;33.75;;;;;2.01;50.78;100864.56;5097015;27;45306;-68
2022/03/08 01:12:08;;;;;;;;;52.25;38.00;;;;;2.00;50.36;100864.53;5096642;27;45338;-67
2022/03/08 01:14:34;;;;;;;;;49.75;40.50;;;;;1.98;51.16;100858.50;5096006;27;47389;-69
2022/03/08 01:16:59;;;;;;;;;43.50;35.25;;;;;1.97;51.08;100855.03;5096354;27;45449;-63
2022/03/08 01:19:25;;;;;;;;;51.25;38.00;;;;;1.95;51.27;100864.56;5097101;27;45381;-66
2022/03/08 01:21:51;;;;;;;;;48.50;38.25;;;;;1.90;50.59;100845.53;5094965;27;45261;-65
2022/03/08 01:24:16;;;;;;;;;50.00;38.50;;;;;1.92;51.24;100851.59;5111933;27;47788;-69
2022/03/08 01:26:42;;;;;;;;;50.25;39.00;;;;;1.89;50.92;100859.38;5096380;27;45413;-63
2022/03/08 01:29:07;;;;;;;;;47.50;40.25;;;;;1.90;51.29;100858.50;5096335;27;45289;-70
2022/03/08 01:31:32;;;;;;;;;51.00;38.25;;;;;1.87;50.94;100854.16;5096438;27;45547;-63
2022/03/08 01:33:58;;;;;;;;;50.50;41.25;;;;;1.84;50.97;100846.38;5098243;27;45970;-62
2022/03/08 01:36:25;;;;;;;;;51.25;38.50;;;;;1.85;50.77;100860.22;5098751;27;45415;-66
2022/03/08 01:38:51;;;;;;;;;48.75;39.00;;;;;1.85;51.27;100855.03;5097555;27;45420;-71
2022/03/08 01:41:17;;;;;;;;;54.75;40.25;;;;;1.82;51.49;100850.72;5098545;27;45316;-69
2022/03/08 01:43:45;;;;;;;;;34.75;20.00;;;;;1.80;51.34;100839.47;5097387;27;46264;-67
2022/03/08 01:46:10;;;;;;;;;47.50;37.00;;;;;1.81;51.44;100848.13;5112370;27;45220;-69
2022/03/08 01:48:36;;;;;;;;;50.00;38.00;;;;;1.78;51.10;100843.78;5097938;27;45298;-72
2022/03/08 01:51:02;;;;;;;;;45.25;37.25;;;;;1.78;51.49;100848.97;5116658;27;45462;-74
2022/03/08 01:53:28;;;;;;;;;41.75;36.25;;;;;1.77;51.41;100843.81;5101069;27;45406;-66
2022/03/08 01:55:53;;;;;;;;;54.25;41.25;;;;;1.75;51.49;100843.78;5117132;27;45376;-70
2022/03/08 01:58:18;;;;;;;;;53.50;40.00;;;;;1.74;51.61;100842.94;5100322;27;45388;-75
2022/03/08 02:00:44;;;;;;;;;54.00;39.50;;;;;1.74;51.62;100840.34;5114434;27;45458;-76
2022/03/08 02:03:10;;;;;;;;;48.00;41.50;;;;;1.74;51.55;100847.25;5113462;27;47710;-73
2022/03/08 02:05:35;;;;;;;;;57.25;39.50;;;;;1.72;51.26;100841.19;5114330;27;45369;-77
2022/03/08 02:08:01;;;;;;;;;48.50;36.00;;;;;1.60;51.38;100827.34;5098343;27;45428;-66
2022/03/08 02:10:26;;;;;;;;;47.75;38.50;;;;;1.68;51.60;100842.06;5114318;27;45324;-74
2022/03/08 02:12:52;;;;;;;;;51.00;40.00;;;;;1.64;51.29;100833.44;5101068;27;45420;-77
2022/03/08 02:15:28;;;;;;;;;53.00;39.75;;;;;1.60;51.56;100824.75;5100406;27;45301;-71
2022/03/08 02:17:56;;;;;;;;;53.50;38.00;;;;;1.63;51.65;100836.88;5098043;27;45277;-66
2022/03/08 02:20:22;;;;;;;;;53.25;40.25;;;;;1.62;52.35;100829.09;5096896;27;45802;-67
2022/03/08 02:22:49;;;;;;;;;51.50;38.25;;;;;1.58;52.07;100820.44;5096104;27;45387;-62
2022/03/08 02:25:16;;;;;;;;;51.75;37.50;;;;;1.59;52.50;100816.97;5100548;27;45372;-71
2022/03/08 02:27:43;;;;;;;;;44.25;39.00;;;;;1.60;51.93;100816.13;5103767;27;45378;-69
2022/03/08 02:30:14;;;;;;;;;52.75;39.25;;;;;1.57;52.09;100811.78;5102264;27;45660;-69
2022/03/08 02:32:40;;;;;;;;;52.00;38.00;;;;;1.57;52.12;100810.91;5099378;27;46226;-68
2022/03/08 02:35:11;;;;;;;;;47.50;38.00;;;;;1.56;52.31;100804.00;5098354;27;45436;-65
2022/03/08 02:37:49;;;;;;;;;62.75;47.75;;;;;1.55;52.32;100804.88;5098778;27;45313;-71
2022/03/08 02:40:18;;;;;;;;;53.75;41.50;;;;;1.54;52.13;100803.13;5098935;27;45571;-72
2022/03/08 02:42:43;;;;;;;;;52.75;41.25;;;;;1.52;51.88;100812.63;5097632;27;47514;-70
2022/03/08 02:45:10;;;;;;;;;53.25;41.00;;;;;1.53;52.12;100814.38;5099389;27;45263;-71
2022/03/08 02:47:36;;;;;;;;;50.00;39.50;;;;;1.52;51.69;100808.34;5114757;27;45484;-72
2022/03/08 02:50:02;;;;;;;;;46.25;39.25;;;;;1.53;52.46;100804.00;5117400;27;45481;-70
2022/03/08 02:52:28;;;;;;;;;48.00;38.50;;;;;1.53;52.25;100798.81;5101373;27;46691;-66
2022/03/08 02:54:53;;;;;;;;;49.75;41.00;;;;;1.49;52.39;100797.97;5098998;27;45277;-70
2022/03/08 02:57:19;;;;;;;;;49.25;39.00;;;;;1.52;52.29;100800.56;5098316;27;45247;-70
2022/03/08 02:59:44;;;;;;;;;49.50;38.50;;;;;1.51;52.12;100785.00;5098459;27;45610;-73
2022/03/08 03:02:09;;;;;;;;;55.25;40.00;;;;;1.50;52.55;100789.31;5098857;27;45656;-71
2022/03/08 03:04:35;;;;;;;;;47.50;37.25;;;;;1.52;52.46;100784.13;5098334;27;45404;-74
2022/03/08 03:07:01;;;;;;;;;44.25;37.75;;;;;1.49;52.50;100782.41;5099089;27;45305;-73
2022/03/08 03:09:26;;;;;;;;;54.75;42.75;;;;;1.50;52.55;100784.13;5101895;27;45543;-71
2022/03/08 03:11:52;;;;;;;;;54.75;41.00;;;;;1.48;52.41;100779.81;5100383;27;46580;-80
2022/03/08 03:14:17;;;;;;;;;36.50;22.50;;;;;1.51;52.61;100787.59;5098521;27;45225;-70
2022/03/08 03:16:42;;;;;;;;;50.00;40.50;;;;;1.48;52.82;100778.09;5100873;27;45327;-74
2022/03/08 03:19:08;;;;;;;;;47.75;41.25;;;;;1.46;53.00;100780.66;5097999;27;45552;-68
2022/03/08 03:21:34;;;;;;;;;46.75;37.25;;;;;1.45;52.25;100776.34;5098107;27;45677;-64
2022/03/08 03:23:59;;;;;;;;;49.25;39.75;;;;;1.48;52.70;100774.63;5097867;27;45218;-75
2022/03/08 03:26:24;;;;;;;;;51.75;38.25;;;;;1.49;52.92;100782.41;5098453;27;45354;-70
2022/03/08 03:28:50;;;;;;;;;51.25;39.75;;;;;1.47;52.64;100773.78;5115816;27;45373;-67
2022/03/08 03:31:17;;;;;;;;;52.50;40.25;;;;;1.46;52.31;100774.63;5100666;27;46288;-75
2022/03/08 03:33:42;;;;;;;;;41.50;35.00;;;;;1.44;52.81;100774.63;5102390;27;45415;-70
2022/03/08 03:36:08;;;;;;;;;54.75;38.75;;;;;1.45;52.71;100778.94;5114557;27;45399;-72
2022/03/08 03:38:33;;;;;;;;;44.00;36.00;;;;;1.44;52.76;100776.34;5097829;27;45474;-73
2022/03/08 03:40:58;;;;;;;;;51.25;36.75;;;;;1.42;53.05;100765.13;5098033;27;45345;-72
2022/03/08 03:43:24;;;;;;;;;46.50;38.50;;;;;1.43;52.71;100770.28;5097512;27;45427;-66
2022/03/08 03:45:49;;;;;;;;;48.25;39.00;;;;;1.42;52.72;100768.56;5099503;27;45763;-67
2022/03/08 03:48:14;;;;;;;;;56.75;40.00;;;;;1.40;52.53;100761.66;5101034;27;45531;-73
2022/03/08 03:50:41;;;;;;;;;48.25;39.00;;;;;1.39;52.73;100765.97;5097609;27;46448;-73
2022/03/08 03:53:07;;;;;;;;;45.75;34.75;;;;;1.37;52.89;100759.06;5097813;27;45322;-77
2022/03/08 03:55:32;;;;;;;;;46.00;36.00;;;;;1.35;52.92;100761.66;5098899;27;45334;-72
2022/03/08 03:57:57;;;;;;;;;48.25;37.00;;;;;1.35;52.74;100761.66;5113048;27;45525;-71
2022/03/08 04:00:23;;;;;;;;;56.25;39.75;;;;;1.35;53.13;100772.03;5096955;27;45313;-68
2022/03/08 04:02:48;;;;;;;;;51.50;36.25;;;;;1.34;53.12;100772.03;5095674;27;45484;-79
2022/03/08 04:05:14;;;;;;;;;47.00;39.50;;;;;1.32;53.21;100772.00;5098977;27;45357;-69
2022/03/08 04:07:40;;;;;;;;;54.25;40.25;;;;;1.31;53.34;100772.88;5099031;27;45446;-62
2022/03/08 04:10:08;;;;;;;;;57.50;41.00;;;;;1.31;53.32;100773.75;5097563;27;45460;-74
2022/03/08 04:12:33;;;;;;;;;49.00;38.50;;;;;1.30;53.09;100774.63;5097677;27;45379;-70
2022/03/08 04:14:59;;;;;;;;;57.50;46.50;;;;;1.28;53.50;100765.97;5097856;27;45250;-74
2022/03/08 04:17:24;;;;;;;;;57.25;40.50;;;;;1.23;53.28;100759.03;5097464;27;45622;-73
2022/03/08 04:19:49;;;;;;;;;53.75;39.75;;;;;1.26;53.14;100764.22;5096604;27;45283;-76
2022/03/08 04:22:15;;;;;;;;;48.00;38.50;;;;;1.25;53.40;100771.16;5097411;27;45342;-65
2022/03/08 04:24:40;;;;;;;;;54.25;41.50;;;;;1.23;53.35;100766.81;5097979;27;45365;-63
2022/03/08 04:27:06;;;;;;;;;51.50;41.25;;;;;1.22;53.44;100765.97;5097353;27;45239;-65
2022/03/08 04:29:32;;;;;;;;;55.25;41.50;;;;;1.12;53.15;100756.47;5098032;27;45469;-70
2022/03/08 04:31:57;;;;;;;;;49.25;40.00;;;;;1.19;53.72;100771.16;5096677;27;45366;-66
2022/03/08 04:34:23;;;;;;;;;44.75;38.75;;;;;1.20;53.52;100764.22;5096677;27;45355;-74
2022/03/08 04:36:48;;;;;;;;;47.75;40.00;;;;;1.14;53.68;100753.00;5112636;27;45389;-68
2022/03/08 04:39:14;;;;;;;;;54.75;42.50;;;;;1.22;53.98;100755.59;5112646;27;45398;-74
2022/03/08 04:41:40;;;;;;;;;48.00;39.75;;;;;1.22;53.49;100745.25;5099987;27;45361;-79
2022/03/08 04:44:05;;;;;;;;;50.25;42.00;;;;;1.24;53.80;100746.09;5098897;27;45340;-74
2022/03/08 04:46:31;;;;;;;;;58.50;40.00;;;;;1.23;53.29;100746.97;5097547;27;45447;-80
2022/03/08 04:48:56;;;;;;;;;53.00;38.50;;;;;1.21;53.56;100751.28;5094217;27;46778;-78
2022/03/08 04:51:22;;;;;;;;;49.75;37.75;;;;;1.20;53.66;100752.16;5097128;27;45385;-74
2022/03/08 04:53:47;;;;;;;;;54.50;38.00;;;;;1.20;54.03;100748.69;5097303;27;45424;-74
2022/03/08 04:56:13;;;;;;;;;50.00;36.75;;;;;1.24;53.36;100750.41;5113588;27;45609;-64
2022/03/08 04:58:38;;;;;;;;;50.50;41.50;;;;;1.24;53.40;100753.00;5096464;27;46010;-70
2022/03/08 05:01:03;;;;;;;;;54.75;42.75;;;;;1.21;54.01;100751.28;5097493;27;45356;-71
2022/03/08 05:03:29;;;;;;;;;57.00;43.25;;;;;1.21;53.64;100746.09;5097528;27;45388;-68
2022/03/08 05:05:54;;;;;;;;;45.75;38.00;;;;;1.21;53.68;100746.09;5097024;27;45443;-71
2022/03/08 05:08:19;;;;;;;;;52.75;42.00;;;;;1.21;53.65;100745.22;5096119;27;46603;-69
2022/03/08 05:10:45;;;;;;;;;52.50;40.50;;;;;1.20;53.66;100743.50;5096152;27;45358;-66
2022/03/08 05:13:10;;;;;;;;;57.25;41.00;;;;;1.16;54.46;100732.28;5096278;27;45352;-64
2022/03/08 05:15:36;;;;;;;;;56.00;40.25;;;;;1.21;53.73;100740.03;5097495;27;45227;-67
2022/03/08 05:18:02;;;;;;;;;56.75;43.25;;;;;1.20;53.83;100743.50;5096257;27;47156;-69
2022/03/08 05:20:27;;;;;;;;;55.00;42.25;;;;;1.24;53.89;100745.22;5112837;27;45312;-63
2022/03/08 05:22:52;;;;;;;;;53.75;41.50;;;;;1.24;53.71;100747.81;5097681;27;45216;-66
2022/03/08 05:25:18;;;;;;;;;51.50;41.50;;;;;1.25;54.19;100752.13;5097869;27;45267;-78
2022/03/08 05:27:43;;;;;;;;;55.50;42.00;;;;;1.26;53.54;100741.78;5097079;27;45712;-75
2022/03/08 05:30:09;;;;;;;;;49.75;39.75;;;;;1.25;53.99;100742.66;5096781;27;45275;-71
2022/03/08 05:32:35;;;;;;;;;58.25;43.50;;;;;1.24;53.77;100740.03;5095998;27;45239;-76
2022/03/08 05:35:00;;;;;;;;;53.75;43.50;;;;;1.25;53.68;100750.44;5097544;27;45636;-78
2022/03/08 05:37:26;;;;;;;;;41.25;37.50;;;;;1.24;54.52;100746.09;5097510;27;46035;-79
2022/03/08 05:39:51;;;;;;;;;61.25;44.25;;;;;1.23;54.07;100739.19;5113831;27;45389;-67
2022/03/08 05:42:16;;;;;;;;;55.25;43.00;;;;;1.24;54.11;100734.84;5097100;27;45459;-72
2022/03/08 05:44:42;;;;;;;;;50.50;39.75;;;;;1.25;53.99;100737.47;5094893;27;45552;-73
2022/03/08 05:47:07;;;;;;;;;53.50;39.50;;;;;1.31;54.04;100742.66;5095928;27;45364;-74
2022/03/08 05:49:33;;;;;;;;;51.00;40.00;;;;;1.37;54.25;100739.19;5095819;27;45364;-74
2022/03/08 05:51:58;;;;;;;;;51.50;40.00;;;;;1.40;53.94;100735.75;5097145;27;45848;-71
2022/03/08 05:54:24;;;;;;;;;57.50;41.25;;;;;1.39;54.30;100740.06;5096317;27;45576;-69
2022/03/08 05:56:49;;;;;;;;;55.75;43.00;;;;;1.41;54.12;100735.72;5096476;27;45432;-74
2022/03/08 05:59:14;;;;;;;;;57.25;45.00;;;;;1.44;53.90;100745.25;5096572;27;45353;-62
2022/03/08 06:01:40;;;;;;;;;48.00;39.25;;;;;1.44;53.88;100742.66;5101572;27;45405;-70
2022/03/08 06:04:06;;;;;;;;;52.75;41.50;;;;;1.43;53.87;100736.59;5099868;27;45593;-71
2022/03/08 06:06:31;;;;;;;;;48.75;40.50;;;;;1.41;54.23;100743.50;5100037;27;45440;-67
2022/03/08 06:08:57;;;;;;;;;52.25;41.75;;;;;1.40;53.94;100744.38;5115191;27;45256;-77
2022/03/08 06:11:22;;;;;;;;;61.50;46.25;;;;;1.39;54.25;100744.38;5099726;27;45370;-75
2022/03/08 06:13:47;;;;;;;;;50.75;39.50;;;;;1.40;54.06;100743.53;5100816;27;45155;-76
2022/03/08 06:16:13;;;;;;;;;60.75;44.25;;;;;1.40;54.07;100746.97;5104163;27;48071;-77
2022/03/08 06:18:39;;;;;;;;;62.25;45.00;;;;;1.40;54.34;100757.34;5109984;27;45249;-79
2022/03/08 06:21:04;;;;;;;;;57.25;43.00;;;;;1.40;54.33;100754.75;5099842;27;45461;-75
2022/03/08 06:23:30;;;;;;;;;58.00;43.00;;;;;1.39;54.08;100754.75;5115439;27;45483;-75
2022/03/08 06:25:55;;;;;;;;;50.75;40.50;;;;;1.38;54.24;100747.84;5114826;27;47232;-67
2022/03/08 06:28:21;;;;;;;;;58.00;41.75;;;;;1.41;54.82;100753.88;5099877;27;45277;-66
2022/03/08 06:30:46;;;;;;;;;57.00;42.00;;;;;1.43;54.07;100748.72;5100637;27;45283;-78
2022/03/08 06:33:12;;;;;;;;;56.50;43.25;;;;;1.43;53.88;100764.25;5101344;27;45570;-73
2022/03/08 06:35:38;;;;;;;;;52.75;39.50;;;;;1.46;54.72;100769.44;5116020;27;48131;-76
2022/03/08 06:38:03;;;;;;;;;55.75;43.50;;;;;1.45;54.27;100763.38;5102937;27;45347;-69
2022/03/08 06:40:29;;;;;;;;;58.50;41.50;;;;;1.52;54.08;100758.19;5115656;27;45389;-72
2022/03/08 06:42:54;;;;;;;;;59.75;42.50;;;;;1.51;54.58;100756.47;5114809;27;45480;-71
2022/03/08 06:45:19;;;;;;;;;61.00;46.25;;;;;1.52;53.83;100756.47;5098546;27;46051;-70
2022/03/08 06:47:45;;;;;;;;;60.00;45.50;;;;;1.51;53.96;100754.75;5098714;27;45325;-67
2022/03/08 06:50:10;;;;;;;;;56.50;44.25;;;;;1.55;53.96;100753.88;5097886;27;45361;-65
2022/03/08 06:52:35;;;;;;;;;56.25;45.25;;;;;1.57;55.36;100759.94;5102524;27;45315;-75
2022/03/08 06:55:01;;;;;;;;;58.75;41.25;;;;;1.59;55.19;100758.22;5104699;27;45491;-64
2022/03/08 06:57:27;;;;;;;;;54.25;41.50;;;;;1.60;54.37;100754.75;5105564;27;45363;-79
2022/03/08 06:59:52;;;;;;;;;52.50;42.25;;;;;1.63;54.49;100758.22;5099278;27;45393;-77
2022/03/08 07:02:18;;;;;;;;;59.25;46.00;;;;;1.61;54.61;100755.63;5099970;27;45199;-76
2022/03/08 07:04:43;;;;;;;;;57.75;45.75;;;;;1.63;54.46;100763.41;5099426;27;45269;-72
2022/03/08 07:07:09;;;;;;;;;62.00;48.75;;;;;1.65;53.99;100766.84;5099468;27;45180;-70
2022/03/08 07:09:34;;;;;;;;;58.00;45.25;;;;;1.65;54.93;100756.47;5098271;27;45242;-71
2022/03/08 07:12:00;;;;;;;;;57.00;44.50;;;;;1.68;54.78;100751.28;5098931;27;45278;-77
2022/03/08 07:14:25;;;;;;;;;60.00;47.75;;;;;1.73;54.24;100753.03;5099325;27;46091;-73
2022/03/08 07:16:51;;;;;;;;;62.75;45.00;;;;;1.77;54.52;100746.09;5100741;27;45205;-76
2022/03/08 07:19:16;;;;;;;;;57.00;46.50;;;;;1.82;54.40;100759.91;5101545;27;45448;-71
2022/03/08 07:21:42;;;;;;;;;61.25;44.25;;;;;1.83;53.99;100761.66;5099782;27;45331;-71
2022/03/08 07:24:08;;;;;;;;;57.25;41.00;;;;;1.86;55.02;100766.84;5100968;27;45353;-76
2022/03/08 07:26:34;;;;;;;;;59.25;44.75;;;;;1.94;55.58;100768.53;5101553;27;45344;-66
2022/03/08 07:28:59;;;;;;;;;59.75;44.50;;;;;2.02;54.16;100774.59;5098593;27;45336;-74
2022/03/08 07:31:25;;;;;;;;;59.25;47.75;;;;;2.02;54.40;100767.69;5100226;27;45542;-71
2022/03/08 07:33:51;;;;;;;;;60.25;47.50;;;;;2.03;54.35;100769.41;5098086;27;46208;-75
2022/03/08 07:36:17;;;;;;;;;59.25;44.25;;;;;2.05;54.01;100766.78;5099673;27;45206;-64
2022/03/08 07:38:42;;;;;;;;;64.50;49.75;;;;;2.11;53.91;100778.91;5099459;27;45298;-75
2022/03/08 07:41:07;;;;;;;;;61.25;46.25;;;;;2.16;53.52;100779.75;5100015;27;45299;-75
2022/03/08 07:43:36;;;;;;;;;61.75;44.25;;;;;2.17;54.03;100782.38;5095251;27;47094;-68
2022/03/08 07:46:03;;;;;;;;;65.00;44.50;;;;;2.22;54.04;100790.13;5094698;27;45493;-67
2022/03/08 07:48:29;;;;;;;;;61.50;47.00;;;;;2.26;54.12;100793.59;5112005;27;45395;-67
2022/03/08 07:50:54;;;;;;;;;58.50;46.25;;;;;2.32;54.46;100791.84;5095015;27;45501;-67
2022/03/08 07:53:19;;;;;;;;;57.75;43.25;;;;;2.38;53.95;100790.97;5096457;27;45381;-66
2022/03/08 07:55:45;;;;;;;;;54.25;40.00;;;;;2.41;53.85;100785.75;5096360;27;45374;-68
2022/03/08 07:58:12;;;;;;;;;56.00;42.75;;;;;2.45;53.54;100787.47;5094804;27;45505;-66
2022/03/08 08:00:39;;;;;;;;;51.25;40.50;;;;;2.48;53.71;100782.28;5095028;27;45236;-66
2022/03/08 08:03:05;;;;;;;;;57.00;46.50;;;;;2.54;53.44;100789.16;5096010;27;45309;-69
2022/03/08 08:05:33;;;;;;;;;61.25;44.50;;;;;2.56;52.56;100782.22;5090426;27;45461;-67
2022/03/08 08:07:59;;;;;;;;;58.75;45.75;;;;;2.57;52.92;100785.72;5079051;27;45416;-70
2022/03/08 08:10:24;;;;;;;;;58.50;45.00;;;;;2.64;54.35;100787.41;5075241;27;45496;-72
2022/03/08 08:12:50;;;;;;;;;63.00;48.00;;;;;2.73;53.84;100786.53;5074891;27;45829;-69
2022/03/08 08:15:15;;;;;;;;;62.25;49.25;;;;;2.80;52.89;100785.63;5085011;27;45626;-72
2022/03/08 08:17:41;;;;;;;;;61.50;46.25;;;;;2.86;53.41;100784.72;5094540;27;45552;-70
2022/03/08 08:20:08;;;;;;;;;61.00;47.75;;;;;2.92;52.71;100787.28;5095592;27;45562;-69
2022/03/08 08:22:33;;;;;;;;;61.25;46.00;;;;;2.97;52.09;100795.91;5093920;27;47468;-68
2022/03/08 08:24:59;;;;;;;;;63.25;47.50;;;;;3.00;51.82;100793.28;5094130;27;45436;-70
2022/03/08 08:27:24;;;;;;;;;57.50;44.00;;;;;3.02;53.21;100783.75;5095971;27;45411;-68
2022/03/08 08:29:49;;;;;;;;;56.25;46.00;;;;;3.12;53.44;100786.28;5096339;27;45492;-69
2022/03/08 08:32:15;;;;;;;;;57.50;45.75;;;;;3.20;52.67;100789.75;5095737;27;45227;-68
2022/03/08 08:34:40;;;;;;;;;55.00;43.75;;;;;3.28;52.84;100785.34;5095457;27;45428;-68
2022/03/08 08:37:07;;;;;;;;;58.75;45.25;;;;;3.38;52.03;100785.28;5095897;27;45275;-68
2022/03/08 08:39:32;;;;;;;;;59.00;45.50;;;;;3.44;52.06;100793.03;5095347;27;45341;-69
2022/03/08 08:42:00;;;;;;;;;61.50;47.00;;;;;3.51;51.98;100798.16;5093869;27;47237;-68
2022/03/08 08:44:26;;;;;;;;;60.50;42.50;;;;;3.57;52.06;100805.09;5095343;27;45371;-70
2022/03/08 08:46:53;;;;;;;;;57.75;45.00;;;;;3.63;51.97;100802.44;5095259;27;45968;-70
2022/03/08 08:49:18;;;;;;;;;60.75;43.75;;;;;3.67;52.03;100800.66;5093045;27;45523;-68
2022/03/08 08:51:44;;;;;;;;;61.00;49.75;;;;;3.75;51.43;100809.28;5095238;27;45625;-68
2022/03/08 08:54:09;;;;;;;;;60.00;45.25;;;;;3.80;51.61;100807.50;5095181;27;45220;-69
2022/03/08 08:56:35;;;;;;;;;58.50;47.25;;;;;3.88;51.09;100801.38;5095408;27;45203;-68
2022/03/08 08:59:04;;;;;;;;;57.00;47.00;;;;;3.95;50.69;100803.03;5095259;27;45479;-68
2022/03/08 09:01:29;;;;;;;;;61.00;47.00;;;;;3.99;51.17;100807.34;5095233;27;45473;-69
2022/03/08 09:03:55;;;;;;;;;59.50;46.75;;;;;4.07;51.37;100805.53;5111228;27;45385;-69
2022/03/08 09:06:20;;;;;;;;;60.75;46.50;;;;;4.15;50.38;100796.78;5095706;27;45404;-69
2022/03/08 09:08:46;;;;;;;;;62.75;49.25;;;;;4.22;50.49;100799.28;5095023;27;45260;-71
2022/03/08 09:11:11;;;;;;;;;54.75;43.25;;;;;4.26;50.52;100792.31;5095550;27;46942;-68
2022/03/08 09:13:37;;;;;;;;;57.75;44.50;;;;;4.32;50.72;100797.47;5093877;27;45865;-69
2022/03/08 09:16:03;;;;;;;;;60.00;46.75;;;;;4.39;50.87;100791.31;5095520;27;45195;-67
2022/03/08 09:18:28;;;;;;;;;61.00;47.75;;;;;4.47;50.98;100785.13;5095787;27;45227;-68
2022/03/08 09:20:54;;;;;;;;;56.00;45.75;;;;;4.57;50.43;100794.56;5095162;27;46005;-68
2022/03/08 09:23:20;;;;;;;;;61.25;47.50;;;;;4.64;50.01;100793.63;5095528;27;45220;-69
2022/03/08 09:25:47;;;;;;;;;57.50;43.00;;;;;4.75;50.14;100785.69;5095512;27;45303;-69
2022/03/08 09:28:13;;;;;;;;;57.00;43.25;;;;;4.83;50.12;100789.03;5094081;27;45508;-68
2022/03/08 09:30:38;;;;;;;;;58.00;44.00;;;;;4.92;50.30;100793.28;5093593;27;47211;-69
2022/03/08 09:33:04;;;;;;;;;57.25;46.00;;;;;5.02;50.45;100788.78;5094855;27;45324;-68
2022/03/08 09:35:30;;;;;;;;;56.75;46.75;;;;;5.12;50.64;100785.19;5094867;27;45361;-72
2022/03/08 09:37:57;;;;;;;;;62.00;46.50;;;;;5.26;50.35;100784.09;5095374;27;45407;-68
2022/03/08 09:40:23;;;;;;;;;58.50;44.00;;;;;5.36;49.60;100783.13;5093616;27;47714;-67
2022/03/08 09:42:50;;;;;;;;;61.25;46.25;;;;;5.46;49.50;100776.00;5095059;27;45189;-68
2022/03/08 09:45:17;;;;;;;;;58.00;44.75;;;;;5.56;49.89;100780.16;5094970;27;45167;-68
2022/03/08 09:47:43;;;;;;;;;59.50;47.00;;;;;5.61;49.16;100767.06;5095253;27;46125;-69
2022/03/08 09:50:11;;;;;;;;;59.50;46.50;;;;;5.81;49.20;100778.91;5095053;27;46814;-68
2022/03/08 09:52:38;;;;;;;;;56.75;42.75;;;;;5.91;49.68;100779.63;5094766;27;45520;-69
2022/03/08 09:55:05;;;;;;;;;57.25;45.75;;;;;6.03;49.17;100774.22;5093456;27;45306;-68
2022/03/08 09:57:31;;;;;;;;;58.75;45.00;;;;;6.11;48.40;100763.59;5095053;27;45744;-68
2022/03/08 09:59:56;;;;;;;;;59.75;46.75;;;;;6.23;47.93;100775.59;5094990;27;46005;-68
2022/03/08 10:02:25;;;;;;;;;62.50;47.00;;;;;6.35;48.38;100769.25;5095193;27;45449;-68
2022/03/08 10:05:04;;;;;;;;;55.00;44.00;;;;;6.46;48.14;100775.16;5093670;27;45390;-68
2022/03/08 10:07:30;;;;;;;;;60.75;47.25;;;;;6.58;48.40;100760.97;5095174;27;45435;-70
2022/03/08 10:09:59;;;;;;;;;59.00;45.50;;;;;6.70;47.67;100770.31;5093353;27;47263;-69
2022/03/08 10:12:26;;;;;;;;;59.00;46.25;;;;;6.80;48.22;100766.59;5110278;27;45341;-68
2022/03/08 10:14:51;;;;;;;;;57.50;45.75;;;;;6.92;48.05;100769.84;5094924;27;45329;-68
2022/03/08 10:17:37;;;;;;;;;58.50;44.75;;;;;7.02;47.68;100760.91;5094835;27;45415;-69
2022/03/08 10:20:08;;;;;;;;;70.25;54.00;;;;;7.08;46.95;100763.38;5094557;27;45365;-70
2022/03/08 10:22:40;;;;;;;;;59.50;46.50;;;;;7.16;47.26;100753.59;5094915;27;45392;-69
2022/03/08 10:25:20;;;;;;;;;58.50;45.25;;;;;7.23;47.01;100753.44;5096429;27;45344;-71
2022/03/08 10:28:05;;;;;;;;;62.00;47.75;;;;;7.35;46.64;100752.31;5096026;27;45530;-69
2022/03/08 10:30:43;;;;;;;;;59.75;48.50;;;;;7.44;46.67;100752.97;5094266;27;47128;-70
2022/03/08 10:33:09;;;;;;;;;59.50;46.75;;;;;7.55;47.18;100747.44;5095756;27;45355;-68
2022/03/08 10:35:39;;;;;;;;;64.75;47.00;;;;;7.64;46.10;100751.59;5093906;27;45337;-69
2022/03/08 10:38:08;;;;;;;;;62.00;46.25;;;;;7.72;46.59;100746.16;5095849;27;45375;-68
2022/03/08 10:40:35;;;;;;;;;58.75;47.25;;;;;7.76;45.48;100742.56;5095164;27;46393;-70
2022/03/08 10:43:15;;;;;;;;;57.50;48.00;;;;;7.83;46.19;100748.50;5093391;27;45952;-69
2022/03/08 10:45:46;;;;;;;;;63.00;47.25;;;;;7.87;45.99;100739.66;5095200;27;45298;-67
2022/03/08 10:48:18;;;;;;;;;62.75;46.75;;;;;8.00;44.98;100751.53;5097427;27;45278;-69
2022/03/08 10:50:45;;;;;;;;;61.25;47.00;;;;;8.12;45.79;100746.88;5098283;27;46214;-69
2022/03/08 10:53:11;;;;;;;;;71.25;53.00;;;;;8.27;46.18;100740.34;5098380;27;45361;-68
2022/03/08 10:55:38;;;;;;;;;63.75;49.00;;;;;8.36;44.57;100731.34;5098559;27;45310;-71
2022/03/08 10:58:12;;;;;;;;;55.50;43.00;;;;;8.44;45.03;100738.09;5098530;27;45448;-69
2022/03/08 11:01:10;;;;;;;;;58.00;45.50;;;;;8.57;44.79;100741.28;5096823;27;47049;-69
2022/03/08 11:03:35;;;;;;;;;62.25;45.75;;;;;8.68;44.44;100737.47;5090002;27;45846;-69
2022/03/08 11:06:05;;;;;;;;;60.00;48.00;;;;;8.71;44.34;100738.22;5098478;27;45388;-69
2022/03/08 11:08:31;;;;;;;;;64.75;49.25;;;;;8.82;44.69;100735.28;5098373;27;45578;-68
2022/03/08 11:10:57;;;;;;;;;61.00;46.75;;;;;8.91;44.38;100727.13;5096595;27;45526;-70
2022/03/08 11:13:22;;;;;;;;;57.00;43.75;;;;;9.05;44.41;100726.72;5098417;27;45318;-70